KCRX/CRX METAR and TAF weather

Enter ICAO airport designator
Station Type Date Time Source
KCRX METAR 2021/10/20 06:55 UTC NOAA

KCRX 200655Z AUTO 00000KT 1/4SM FG VV002 09/08 A3018 RMK AO2


Station Type Date Time Source
KCRX Decoded METAR 2021/10/20 06:55 UTC NOAA

Station name not available
Oct 20, 2021 - 02:55 AM EDT / 2021.10.20 0655 UTC
Wind: Calm:0
Visibility: 1/4 mile(s):0
Sky conditions: obscured
Weather: fog
Temperature: 48 F (9 C)
Dew Point: 46 F (8 C)
Relative Humidity: 93%
Pressure (altimeter): 30.18 in. Hg (1022 hPa)
ob: KCRX 200655Z AUTO 00000KT 1/4SM FG VV002 09/08 A3018 RMK AO2
cycle: 7

Station Type Date Time Source
KCRX TAF UTC NOAA

Error!

Example: see airport list